createdAt,value
2018-05-06T00:02:07.701Z,4.73
2018-05-06T00:04:36.867Z,4.80
2018-05-06T00:07:05.271Z,5.20
2018-05-06T00:09:33.529Z,4.80
2018-05-06T00:12:01.112Z,5.20
2018-05-06T00:14:30.208Z,4.43
2018-05-06T00:16:57.773Z,5.40
2018-05-06T00:19:26.377Z,4.53
2018-05-06T00:21:54.035Z,5.10
2018-05-06T00:24:21.610Z,4.70
2018-05-06T00:26:49.437Z,6.97
2018-05-06T00:29:17.587Z,5.17
2018-05-06T00:31:45.170Z,5.47
2018-05-06T00:34:12.736Z,5.43
2018-05-06T00:36:40.359Z,5.33
2018-05-06T00:39:09.054Z,5.80
2018-05-06T00:41:36.767Z,4.93
2018-05-06T00:44:04.456Z,5.23
2018-05-06T00:46:33.395Z,5.20
2018-05-06T00:49:01.168Z,5.00
2018-05-06T00:51:28.742Z,5.43
2018-05-06T00:53:56.569Z,5.27
2018-05-06T00:56:25.423Z,5.33
2018-05-06T00:58:53.195Z,5.63
2018-05-06T01:01:20.963Z,5.80
2018-05-06T01:03:49.586Z,5.90
2018-05-06T01:06:17.742Z,5.13
2018-05-06T01:08:45.758Z,5.83
2018-05-06T01:11:13.495Z,5.20
2018-05-06T01:13:42.236Z,7.90
2018-05-06T01:16:09.998Z,5.73
2018-05-06T01:18:38.567Z,5.90
2018-05-06T01:21:06.140Z,5.30
2018-05-06T01:23:33.719Z,5.53
2018-05-06T01:26:01.525Z,4.67
2018-05-06T01:28:29.615Z,5.00
2018-05-06T01:30:57.207Z,5.57
2018-05-06T01:33:24.789Z,4.77
2018-05-06T01:35:53.329Z,4.93
2018-05-06T01:38:21.023Z,4.63
2018-05-06T01:40:49.432Z,5.33
2018-05-06T01:43:17.027Z,5.80
2018-05-06T01:45:44.820Z,7.00
2018-05-06T01:48:12.804Z,4.93
2018-05-06T01:50:40.872Z,5.80
2018-05-06T01:53:08.473Z,5.43
2018-05-06T01:55:37.087Z,5.13
2018-05-06T01:58:04.753Z,5.40
2018-05-06T02:00:33.363Z,7.30
2018-05-06T02:03:00.977Z,4.40
2018-05-06T02:05:29.370Z,5.83
2018-05-06T02:07:57.502Z,5.47
2018-05-06T02:10:26.090Z,4.67
2018-05-06T02:12:53.682Z,5.10
2018-05-06T02:15:22.167Z,5.10
2018-05-06T02:17:50.574Z,5.60
2018-05-06T02:20:18.163Z,4.67
2018-05-06T02:22:45.869Z,5.53
2018-05-06T02:25:13.695Z,4.47
2018-05-06T02:27:42.459Z,5.40
2018-05-06T02:30:10.403Z,5.60
2018-05-06T02:32:38.076Z,5.47
2018-05-06T02:35:06.303Z,4.60
2018-05-06T02:37:33.938Z,5.80
2018-05-06T02:40:01.938Z,5.43
2018-05-06T02:42:29.526Z,5.47
2018-05-06T02:44:57.188Z,4.93
2018-05-06T02:47:24.825Z,5.37
2018-05-06T02:49:52.562Z,5.30
2018-05-06T02:52:20.233Z,4.87
2018-05-06T02:54:48.478Z,6.13
2018-05-06T02:57:16.040Z,4.73
2018-05-06T02:59:43.892Z,5.80
2018-05-06T03:02:11.527Z,5.77
2018-05-06T03:04:39.388Z,6.63
2018-05-06T03:07:08.135Z,5.63
2018-05-06T03:09:36.524Z,6.53
2018-05-06T03:12:04.101Z,5.03
2018-05-06T03:14:32.078Z,5.33
2018-05-06T03:16:59.698Z,6.27
2018-05-06T03:19:27.953Z,6.57
2018-05-06T03:21:55.666Z,5.87
2018-05-06T03:24:23.492Z,6.00
2018-05-06T03:26:51.834Z,6.00
2018-05-06T03:29:20.224Z,5.40
2018-05-06T03:31:47.764Z,5.40
2018-05-06T03:34:15.951Z,5.93
2018-05-06T03:36:43.688Z,6.37
2018-05-06T03:39:11.664Z,5.80
2018-05-06T03:41:39.213Z,6.43
2018-05-06T03:44:06.855Z,5.20
2018-05-06T03:46:34.443Z,6.53
2018-05-06T03:49:01.999Z,6.80
2018-05-06T03:51:29.563Z,6.40
2018-05-06T03:53:57.150Z,4.93
2018-05-06T03:56:56.870Z,6.73
2018-05-06T03:59:36.271Z,5.87
2018-05-06T04:05:14.764Z,6.00
2018-05-06T04:07:43.338Z,7.03
2018-05-06T04:10:10.896Z,6.13
2018-05-06T04:12:38.515Z,6.90
2018-05-06T04:15:07.056Z,6.13
2018-05-06T04:17:35.438Z,6.13
2018-05-06T04:20:03.018Z,5.93
2018-05-06T04:22:30.566Z,6.27
2018-05-06T04:24:58.164Z,6.23
2018-05-06T04:27:26.168Z,6.07
2018-05-06T04:29:54.615Z,5.37
2018-05-06T04:32:22.467Z,5.70
2018-05-06T04:34:50.809Z,6.17
2018-05-06T04:37:18.391Z,5.93
2018-05-06T04:39:46.629Z,6.70
2018-05-06T04:42:14.294Z,5.80
2018-05-06T04:44:41.841Z,6.83
2018-05-06T04:47:09.412Z,6.00
2018-05-06T04:49:36.958Z,6.83
2018-05-06T04:52:04.504Z,6.00
2018-05-06T04:54:32.747Z,6.10
2018-05-06T04:57:00.324Z,5.80
2018-05-06T04:59:27.867Z,5.90
2018-05-06T05:01:55.533Z,6.03
2018-05-06T05:04:23.087Z,6.13
2018-05-06T05:06:51.448Z,6.40
2018-05-06T05:09:19.484Z,6.17
2018-05-06T05:11:47.036Z,6.03
2018-05-06T05:14:15.870Z,5.80
2018-05-06T05:16:43.476Z,6.13
2018-05-06T05:19:11.742Z,6.13
2018-05-06T05:21:39.285Z,6.50
2018-05-06T05:24:06.820Z,5.60
2018-05-06T05:26:35.022Z,6.90
2018-05-06T05:29:03.311Z,6.10
2018-05-06T05:31:30.859Z,6.33
2018-05-06T05:33:59.019Z,6.07
2018-05-06T05:36:26.550Z,6.03
2018-05-06T05:38:54.581Z,6.27
2018-05-06T05:41:22.287Z,6.63
2018-05-06T05:43:49.839Z,6.13
2018-05-06T05:46:17.423Z,6.87
2018-05-06T05:48:44.968Z,6.23
2018-05-06T05:51:12.655Z,5.73
2018-05-06T05:53:40.211Z,6.40
2018-05-06T05:56:08.331Z,6.03
2018-05-06T05:58:35.903Z,6.63
2018-05-06T06:01:03.439Z,6.57
2018-05-06T06:03:31.034Z,7.73
2018-05-06T06:05:59.038Z,6.43
2018-05-06T06:08:27.081Z,6.77
2018-05-06T06:10:54.620Z,7.40
2018-05-06T06:13:22.870Z,6.80
2018-05-06T06:15:50.462Z,6.97
2018-05-06T06:18:18.903Z,6.57
2018-05-06T06:20:46.432Z,7.30
2018-05-06T06:23:14.153Z,6.40
2018-05-06T06:25:41.738Z,7.17
2018-05-06T06:28:10.073Z,6.93
2018-05-06T06:30:37.788Z,7.47
2018-05-06T06:33:05.319Z,7.23
2018-05-06T06:35:33.380Z,8.03
2018-05-06T06:38:00.917Z,7.17
2018-05-06T06:40:29.517Z,7.57
2018-05-06T06:42:57.055Z,8.07
2018-05-06T06:45:24.670Z,7.13
2018-05-06T06:47:53.114Z,6.77
2018-05-06T06:50:20.707Z,6.53
2018-05-06T06:52:48.301Z,7.33
2018-05-06T06:55:17.000Z,6.70
2018-05-06T06:57:44.580Z,7.30
2018-05-06T07:00:12.112Z,6.37
2018-05-06T07:02:39.795Z,6.73
2018-05-06T07:05:07.890Z,6.60
2018-05-06T07:07:36.023Z,7.10
2018-05-06T07:10:03.597Z,6.70
2018-05-06T07:12:31.385Z,8.30
2018-05-06T07:14:59.519Z,6.67
2018-05-06T07:17:27.790Z,6.87
2018-05-06T07:19:55.512Z,6.90
2018-05-06T07:22:23.039Z,6.80
2018-05-06T07:24:50.629Z,7.10
2018-05-06T07:27:19.167Z,7.20
2018-05-06T07:29:47.413Z,7.33
2018-05-06T07:32:14.957Z,7.33
2018-05-06T07:34:43.623Z,7.70
2018-05-06T07:37:11.167Z,6.90
2018-05-06T07:39:39.152Z,6.83
2018-05-06T07:42:06.698Z,8.33
2018-05-06T07:44:34.224Z,7.47
2018-05-06T07:47:01.787Z,7.37
2018-05-06T07:49:29.330Z,6.87
2018-05-06T07:51:56.908Z,7.33
2018-05-06T07:54:25.143Z,6.40
2018-05-06T07:56:52.735Z,7.20
2018-05-06T07:59:20.285Z,6.80
2018-05-06T08:01:47.983Z,6.73
2018-05-06T08:04:15.545Z,6.83
2018-05-06T08:06:44.056Z,6.40
2018-05-06T08:09:12.581Z,6.70
2018-05-06T08:11:40.130Z,6.27
2018-05-06T08:14:08.290Z,6.73
2018-05-06T08:16:35.943Z,6.97
2018-05-06T08:19:04.150Z,6.83
2018-05-06T08:21:31.696Z,6.60
2018-05-06T08:23:59.242Z,6.90
2018-05-06T08:26:27.797Z,6.23
2018-05-06T08:28:56.900Z,6.67
2018-05-06T08:31:24.516Z,6.00
2018-05-06T08:33:52.774Z,6.63
2018-05-06T08:36:20.393Z,7.13
2018-05-06T08:38:48.732Z,6.20
2018-05-06T08:41:16.278Z,6.97
2018-05-06T08:43:44.020Z,6.67
2018-05-06T08:46:11.607Z,6.97
2018-05-06T08:48:40.160Z,6.57
2018-05-06T08:51:08.778Z,6.23
2018-05-06T08:53:36.314Z,6.50
2018-05-06T08:56:04.679Z,6.60
2018-05-06T08:58:32.223Z,5.70
2018-05-06T09:00:59.799Z,6.33
2018-05-06T09:03:27.368Z,5.73
2018-05-06T09:05:55.768Z,6.50
2018-05-06T09:08:24.550Z,5.80
2018-05-06T09:10:52.213Z,6.10
2018-05-06T09:13:21.362Z,6.10
2018-05-06T09:15:48.919Z,5.70
2018-05-06T09:18:16.987Z,5.40
2018-05-06T09:20:44.630Z,5.67
2018-05-06T09:23:12.159Z,5.90
2018-05-06T09:25:39.762Z,5.43
2018-05-06T09:28:07.963Z,6.00
2018-05-06T09:30:35.531Z,5.47
2018-05-06T09:33:03.069Z,6.30
2018-05-06T09:35:31.069Z,5.13
2018-05-06T09:37:58.600Z,5.63
2018-05-06T09:40:26.895Z,5.23
2018-05-06T09:42:54.495Z,5.50
2018-05-06T09:45:22.115Z,5.27
2018-05-06T09:47:49.934Z,5.47
2018-05-06T09:50:17.441Z,4.70
2018-05-06T09:52:45.006Z,4.97
2018-05-06T09:55:13.171Z,5.60
2018-05-06T09:57:40.699Z,4.47
2018-05-06T10:00:08.277Z,4.93
2018-05-06T10:02:35.853Z,4.13
2018-05-06T10:05:04.204Z,5.03
2018-05-06T10:07:32.487Z,4.90
2018-05-06T10:10:00.033Z,5.07
2018-05-06T10:12:27.583Z,4.30
2018-05-06T10:14:55.866Z,4.57
2018-05-06T10:17:24.163Z,4.73
2018-05-06T10:19:51.703Z,5.00
2018-05-06T10:22:19.304Z,4.47
2018-05-06T10:24:46.839Z,4.27
2018-05-06T10:27:15.017Z,5.40
2018-05-06T10:29:43.439Z,4.20
2018-05-06T10:32:10.983Z,4.53
2018-05-06T10:34:39.326Z,4.03
2018-05-06T10:37:06.849Z,4.00
2018-05-06T10:39:35.320Z,4.07
2018-05-06T10:42:02.859Z,4.83
2018-05-06T10:44:30.393Z,3.53
2018-05-06T10:46:58.004Z,3.93
2018-05-06T10:49:25.777Z,3.60
2018-05-06T10:51:53.279Z,4.07
2018-05-06T10:54:21.287Z,4.30
2018-05-06T10:56:49.567Z,4.00
2018-05-06T10:59:17.095Z,4.47
2018-05-06T11:01:45.231Z,4.13
2018-05-06T11:04:12.804Z,3.77
2018-05-06T11:06:40.909Z,4.03
2018-05-06T11:09:09.233Z,3.90
2018-05-06T11:11:36.762Z,3.57
2018-05-06T11:14:05.089Z,4.57
2018-05-06T11:16:32.627Z,3.80
2018-05-06T11:19:00.599Z,4.07
2018-05-06T11:21:28.156Z,3.70
2018-05-06T11:23:55.739Z,3.77
2018-05-06T11:26:24.040Z,3.83
2018-05-06T11:28:52.362Z,3.83
2018-05-06T11:31:19.895Z,3.40
2018-05-06T11:33:48.156Z,4.03
2018-05-06T11:36:15.631Z,3.87
2018-05-06T11:38:43.860Z,3.57
2018-05-06T11:41:11.404Z,3.83
2018-05-06T11:43:38.953Z,3.93
2018-05-06T11:46:06.517Z,4.27
2018-05-06T11:48:34.048Z,3.83
2018-05-06T11:51:01.685Z,4.20
2018-05-06T11:53:29.266Z,3.77
2018-05-06T11:55:57.390Z,3.73
2018-05-06T11:58:24.948Z,3.37
2018-05-06T12:00:52.600Z,3.63
2018-05-06T12:03:20.160Z,3.13
2018-05-06T12:05:48.268Z,3.07
2018-05-06T12:08:16.517Z,3.50
2018-05-06T12:10:44.691Z,3.07
2018-05-06T12:13:12.350Z,3.80
2018-05-06T12:15:40.499Z,3.20
2018-05-06T12:18:08.914Z,3.37
2018-05-06T12:20:36.457Z,2.90
2018-05-06T12:23:04.006Z,3.60
2018-05-06T12:25:31.571Z,3.17
2018-05-06T12:27:59.529Z,3.60
2018-05-06T12:30:27.059Z,3.00
2018-05-06T12:32:54.728Z,3.10
2018-05-06T12:35:23.080Z,2.97
2018-05-06T12:37:50.667Z,3.00
2018-05-06T12:40:18.757Z,2.70
2018-05-06T12:42:46.299Z,2.63
2018-05-06T12:45:13.839Z,3.10
2018-05-06T12:47:41.435Z,2.37
2018-05-06T12:50:08.976Z,2.90
2018-05-06T12:52:36.659Z,3.13
2018-05-06T12:55:04.972Z,4.23
2018-05-06T12:57:32.520Z,2.80
2018-05-06T13:00:00.053Z,2.77
2018-05-06T13:02:27.677Z,2.77
2018-05-06T13:04:56.051Z,2.90
2018-05-06T13:07:24.274Z,2.60
2018-05-06T13:09:52.842Z,2.97
2018-05-06T13:12:20.435Z,2.63
2018-05-06T13:14:48.431Z,2.40
2018-05-06T13:17:17.297Z,2.63
2018-05-06T13:19:44.830Z,2.33
2018-05-06T13:22:12.354Z,3.03
2018-05-06T13:24:40.006Z,2.57
2018-05-06T13:27:08.196Z,3.07
2018-05-06T13:29:36.625Z,2.20
2018-05-06T13:32:04.189Z,2.80
2018-05-06T13:34:32.539Z,2.80
2018-05-06T13:37:00.078Z,2.90
2018-05-06T13:39:28.342Z,2.30
2018-05-06T13:41:55.907Z,2.87
2018-05-06T13:44:23.440Z,2.60
2018-05-06T13:46:51.285Z,2.37
2018-05-06T13:49:18.844Z,2.27
2018-05-06T13:51:46.570Z,2.23
2018-05-06T13:54:14.248Z,2.73
2018-05-06T13:56:42.445Z,2.37
2018-05-06T13:59:10.018Z,2.57
2018-05-06T14:01:37.562Z,2.00
2018-05-06T14:04:06.101Z,2.80
2018-05-06T14:06:34.130Z,2.47
2018-05-06T14:09:02.412Z,2.70
2018-05-06T14:11:29.944Z,2.57
2018-05-06T14:13:58.102Z,2.37
2018-05-06T14:16:25.640Z,2.50
2018-05-06T14:18:53.888Z,2.97
2018-05-06T14:21:21.470Z,2.73
2018-05-06T14:23:49.007Z,2.27
2018-05-06T14:26:17.249Z,2.50
2018-05-06T14:28:45.395Z,2.03
2018-05-06T14:31:13.008Z,2.57
2018-05-06T14:33:41.259Z,2.50
2018-05-06T14:36:08.800Z,2.90
2018-05-06T14:38:36.981Z,2.10
2018-05-06T14:41:04.547Z,3.23
2018-05-06T14:43:32.091Z,2.70
2018-05-06T14:46:00.251Z,2.50
2018-05-06T14:48:27.786Z,2.20
2018-05-06T14:50:55.710Z,2.63
2018-05-06T14:53:23.382Z,2.07
2018-05-06T14:55:51.473Z,2.40
2018-05-06T14:58:19.743Z,2.43
2018-05-06T15:00:47.319Z,2.43
2018-05-06T15:03:14.928Z,2.20
2018-05-06T15:05:42.990Z,2.47
2018-05-06T15:08:11.271Z,2.67
2018-05-06T15:10:38.854Z,2.80
2018-05-06T15:13:06.375Z,2.10
2018-05-06T15:15:34.596Z,2.60
2018-05-06T15:18:02.843Z,2.50
2018-05-06T15:20:30.386Z,3.23
2018-05-06T15:22:57.915Z,2.03
2018-05-06T15:25:25.562Z,2.30
2018-05-06T15:27:54.005Z,2.50
2018-05-06T15:30:21.547Z,2.23
2018-05-06T15:32:49.102Z,2.40
2018-05-06T15:35:17.225Z,2.10
2018-05-06T15:37:44.763Z,3.07
2018-05-06T15:40:12.667Z,2.43
2018-05-06T15:42:40.204Z,3.57
2018-05-06T15:45:07.763Z,2.30
2018-05-06T15:47:35.659Z,3.10
2018-05-06T15:50:03.642Z,2.60
2018-05-06T15:52:31.176Z,2.83
2018-05-06T15:54:59.441Z,2.20
2018-05-06T15:57:26.971Z,2.87
2018-05-06T15:59:54.508Z,2.20
2018-05-06T16:05:18.046Z,2.07
2018-05-06T16:07:46.279Z,2.27
2018-05-06T16:10:13.827Z,1.67
2018-05-06T16:12:41.357Z,2.97
2018-05-06T16:15:09.527Z,2.30
2018-05-06T16:17:37.616Z,2.50
2018-05-06T16:20:06.007Z,2.37
2018-05-06T16:22:33.573Z,1.77
2018-05-06T16:25:01.129Z,2.30
2018-05-06T16:27:29.238Z,2.00
2018-05-06T16:29:56.786Z,2.83
2018-05-06T16:32:24.406Z,2.03
2018-05-06T16:34:52.494Z,2.50
2018-05-06T16:37:20.039Z,2.10
2018-05-06T16:39:48.100Z,3.37
2018-05-06T16:42:15.638Z,2.20
2018-05-06T16:44:43.302Z,3.70
2018-05-06T16:47:11.880Z,1.73
2018-05-06T16:49:39.427Z,2.43
2018-05-06T16:52:06.960Z,2.20
2018-05-06T16:54:35.140Z,2.70
2018-05-06T16:57:03.241Z,2.20
2018-05-06T16:59:30.834Z,2.60
2018-05-06T17:01:58.386Z,2.53
2018-05-06T17:04:25.972Z,2.50
2018-05-06T17:06:54.099Z,2.63
2018-05-06T17:09:21.649Z,2.13
2018-05-06T17:11:49.197Z,2.50
2018-05-06T17:14:17.250Z,1.60
2018-05-06T17:16:44.929Z,2.77
2018-05-06T17:19:13.047Z,2.00
2018-05-06T17:21:41.072Z,2.53
2018-05-06T17:24:08.631Z,2.03
2018-05-06T17:26:36.557Z,2.37
2018-05-06T17:29:04.113Z,2.33
2018-05-06T17:31:31.694Z,2.03
2018-05-06T17:33:59.656Z,2.20
2018-05-06T17:36:27.190Z,2.00
2018-05-06T17:38:55.492Z,2.97
2018-05-06T17:41:23.038Z,2.20
2018-05-06T17:43:50.573Z,3.57
2018-05-06T17:46:18.976Z,2.37
2018-05-06T17:48:46.697Z,2.43
2018-05-06T17:51:14.244Z,2.30
2018-05-06T17:53:41.855Z,2.40
2018-05-06T17:56:09.932Z,2.30
2018-05-06T17:58:37.481Z,2.67
2018-05-06T18:01:05.051Z,2.47
2018-05-06T18:03:32.643Z,2.60
2018-05-06T18:06:00.834Z,2.33
2018-05-06T18:08:28.370Z,2.30
2018-05-06T18:10:55.900Z,3.00
2018-05-06T18:13:24.373Z,2.03
2018-05-06T18:15:51.991Z,3.27
2018-05-06T18:18:20.135Z,1.90
2018-05-06T18:20:48.534Z,2.87
2018-05-06T18:23:16.186Z,2.17
2018-05-06T18:25:43.727Z,2.67
2018-05-06T18:28:11.835Z,2.20
2018-05-06T18:30:39.502Z,2.73
2018-05-06T18:33:07.594Z,2.40
2018-05-06T18:35:35.888Z,2.27
2018-05-06T18:38:03.656Z,2.47
2018-05-06T18:40:31.875Z,2.40
2018-05-06T18:42:59.499Z,2.90
2018-05-06T18:45:27.049Z,2.70
2018-05-06T18:47:55.537Z,2.80
2018-05-06T18:50:23.162Z,3.33
2018-05-06T18:52:50.810Z,2.80
2018-05-06T18:55:19.039Z,4.00
2018-05-06T18:57:46.640Z,3.37
2018-05-06T19:00:14.187Z,3.03
2018-05-06T19:02:41.844Z,4.23
2018-05-06T19:05:10.499Z,5.40
2018-05-06T19:07:38.028Z,6.67
2018-05-06T19:10:05.729Z,7.13
2018-05-06T19:12:33.301Z,5.30
2018-05-06T19:15:01.258Z,5.13
2018-05-06T19:17:29.502Z,6.73
2018-05-06T19:19:57.721Z,3.77
2018-05-06T19:22:26.063Z,5.20
2018-05-06T19:24:53.615Z,3.67
2018-05-06T19:27:21.862Z,5.03
2018-05-06T19:29:49.413Z,3.63
2018-05-06T19:32:17.681Z,3.40
2018-05-06T19:34:45.790Z,3.10
2018-05-06T19:37:13.366Z,3.07
2018-05-06T19:39:41.663Z,2.80
2018-05-06T19:42:09.215Z,3.00
2018-05-06T19:44:36.812Z,4.10
2018-05-06T19:47:05.019Z,2.70
2018-05-06T19:49:32.579Z,3.03
2018-05-06T19:52:00.149Z,2.70
2018-05-06T19:54:28.634Z,3.17
2018-05-06T19:56:56.233Z,3.07
2018-05-06T19:59:23.846Z,3.03
2018-05-06T20:01:51.467Z,3.17
2018-05-06T20:04:19.032Z,2.77
2018-05-06T20:06:48.005Z,3.13
2018-05-06T20:09:15.588Z,3.27
2018-05-06T20:11:43.169Z,3.63
2018-05-06T20:14:11.381Z,2.80
2018-05-06T20:16:38.954Z,4.33
2018-05-06T20:19:07.204Z,3.47
2018-05-06T20:21:36.751Z,4.57
2018-05-06T20:24:04.318Z,3.90
2018-05-06T20:26:32.363Z,4.27
2018-05-06T20:28:59.913Z,3.73
2018-05-06T20:31:28.012Z,3.97
2018-05-06T20:33:55.970Z,4.03
2018-05-06T20:36:23.570Z,4.33
2018-05-06T20:38:51.991Z,3.60
2018-05-06T20:41:19.556Z,3.73
2018-05-06T20:43:47.242Z,4.63
2018-05-06T20:46:15.187Z,4.67
2018-05-06T20:48:42.732Z,4.03
2018-05-06T20:51:10.275Z,4.23
2018-05-06T20:53:37.832Z,4.30
2018-05-06T20:56:06.289Z,3.40
2018-05-06T20:58:33.866Z,4.40
2018-05-06T21:01:01.400Z,3.80
2018-05-06T21:03:29.610Z,4.90
2018-05-06T21:05:57.693Z,4.27
2018-05-06T21:08:25.335Z,5.50
2018-05-06T21:10:52.871Z,4.67
2018-05-06T21:13:21.570Z,5.77
2018-05-06T21:15:49.092Z,4.23
2018-05-06T21:18:17.107Z,4.67
2018-05-06T21:20:45.324Z,4.70
2018-05-06T21:23:12.869Z,4.40
2018-05-06T21:25:40.427Z,4.23
2018-05-06T21:28:08.558Z,4.20
2018-05-06T21:30:36.129Z,5.27
2018-05-06T21:33:03.607Z,4.23
2018-05-06T21:35:33.025Z,4.73
2018-05-06T21:38:00.527Z,4.50
2018-05-06T21:40:28.803Z,5.40
2018-05-06T21:42:56.389Z,4.73
2018-05-06T21:45:24.008Z,5.60
2018-05-06T21:47:52.674Z,4.30
2018-05-06T21:50:20.301Z,4.77
2018-05-06T21:52:47.885Z,4.17
2018-05-06T21:55:16.899Z,4.53
2018-05-06T21:57:44.449Z,4.70
2018-05-06T22:00:12.006Z,4.53
2018-05-06T22:02:39.565Z,4.63
2018-05-06T22:05:07.791Z,3.70
2018-05-06T22:07:35.466Z,4.50
2018-05-06T22:10:02.890Z,4.03
2018-05-06T22:16:01.571Z,3.70
2018-05-06T22:18:30.022Z,4.63
2018-05-06T22:20:58.238Z,4.13
2018-05-06T22:23:25.790Z,5.17
2018-05-06T22:25:54.154Z,4.17
2018-05-06T22:28:21.706Z,4.60
2018-05-06T22:30:49.252Z,3.87
2018-05-06T22:33:18.018Z,4.03
2018-05-06T22:35:45.603Z,4.37
2018-05-06T22:38:13.216Z,4.17
2018-05-06T22:40:41.390Z,4.10
2018-05-06T22:43:08.928Z,3.50
2018-05-06T22:45:37.520Z,3.63
2018-05-06T22:48:05.795Z,3.93
2018-05-06T22:50:33.342Z,3.93
2018-05-06T22:53:00.878Z,4.50
2018-05-06T22:55:28.967Z,4.40
2018-05-06T22:57:56.521Z,4.30
2018-05-06T23:00:24.652Z,3.87
2018-05-06T23:02:53.015Z,4.10
2018-05-06T23:05:21.343Z,3.60
2018-05-06T23:07:48.941Z,4.00
2018-05-06T23:10:16.982Z,3.70
2018-05-06T23:12:44.575Z,3.87
2018-05-06T23:15:12.955Z,3.57
2018-05-06T23:17:41.246Z,4.03
2018-05-06T23:20:09.372Z,4.40
2018-05-06T23:22:37.392Z,3.93
2018-05-06T23:25:04.936Z,3.70
2018-05-06T23:27:33.098Z,3.40
2018-05-06T23:30:00.667Z,3.77
2018-05-06T23:32:28.234Z,3.43
2018-05-06T23:34:56.256Z,4.67
2018-05-06T23:37:23.830Z,3.30
2018-05-06T23:39:52.069Z,3.90
2018-05-06T23:42:19.608Z,3.60
2018-05-06T23:44:47.368Z,3.63
2018-05-06T23:47:14.967Z,3.33
2018-05-06T23:49:42.829Z,4.17
2018-05-06T23:52:10.388Z,3.50
2018-05-06T23:54:38.890Z,3.30
2018-05-06T23:57:06.428Z,3.20
2018-05-06T23:59:34.010Z,2.90
